Time;durP1;ratioP1;P1;durP2;ratioP2;P2;SDS_P1;SDS_P2;PMS_P1;PMS_P2;Temp;Humidity;BMP_temperature;BMP_pressure;BME280_temperature;BME280_humidity;BME280_pressure;Samples;Min_cycle;Max_cycle;Signal;HPM_P1;HPM_P2
2023/03/26 00:02:06;;;;;;;12.30;6.53;;;7.20;99.90;;;;;;10440307;28;20216;-76
2023/03/26 00:07:27;;;;;;;22.77;12.20;;;7.10;99.90;;;;;;10438456;28;20280;-77
2023/03/26 00:12:48;;;;;;;17.47;10.80;;;7.10;99.90;;;;;;10439533;28;20200;-77
2023/03/26 00:18:09;;;;;;;9.47;5.57;;;7.10;99.90;;;;;;10414304;28;20490;-77
2023/03/26 00:23:33;;;;;;;22.47;15.40;;;7.10;99.90;;;;;;10438323;28;20197;-77
2023/03/26 00:28:54;;;;;;;41.43;25.03;;;7.10;99.90;;;;;;10439068;28;20224;-77
2023/03/26 00:34:17;;;;;;;18.33;9.73;;;7.00;99.90;;;;;;10438895;28;20256;-76
2023/03/26 00:39:38;;;;;;;14.03;7.67;;;7.00;99.90;;;;;;10437541;28;20199;-77
2023/03/26 00:45:00;;;;;;;18.90;8.57;;;7.00;99.90;;;;;;10437423;28;20238;-77
2023/03/26 00:50:20;;;;;;;22.63;9.47;;;7.00;99.90;;;;;;10437561;28;20220;-78
2023/03/26 00:55:43;;;;;;;14.90;7.13;;;7.00;99.90;;;;;;10436759;28;20199;-77
2023/03/26 01:01:08;;;;;;;8.83;4.00;;;7.00;99.90;;;;;;10437773;28;20194;-77
2023/03/26 01:06:49;;;;;;;8.73;5.80;;;7.00;99.90;;;;;;10437102;28;20212;-76
2023/03/26 01:12:15;;;;;;;16.57;6.53;;;7.00;99.90;;;;;;10437351;28;20220;-77
2023/03/26 01:17:37;;;;;;;9.67;4.17;;;7.00;99.90;;;;;;10411522;28;20256;-77
2023/03/26 01:23:04;;;;;;;12.07;4.67;;;7.00;99.90;;;;;;10434873;28;20208;-76
2023/03/26 01:28:28;;;;;;;12.30;6.97;;;7.00;99.90;;;;;;10436722;28;20605;-76
2023/03/26 01:34:01;;;;;;;9.07;4.27;;;7.00;99.90;;;;;;10421590;28;20204;-77
2023/03/26 01:39:41;;;;;;;12.00;4.87;;;7.00;99.90;;;;;;10436278;28;20367;-77
2023/03/26 01:45:07;;;;;;;11.33;4.77;;;7.10;99.90;;;;;;10421207;28;20229;-77
2023/03/26 01:50:28;;;;;;;12.33;7.40;;;7.10;99.90;;;;;;10435072;28;20220;-77
2023/03/26 01:56:11;;;;;;;12.27;5.50;;;7.10;99.90;;;;;;10436115;28;20534;-77
2023/03/26 02:01:43;;;;;;;13.60;4.70;;;7.10;99.90;;;;;;10435901;28;20205;-77
2023/03/26 02:07:19;;;;;;;4.90;3.03;;;7.20;99.90;;;;;;10434373;28;20212;-76
2023/03/26 02:12:43;;;;;;;8.70;5.53;;;7.10;99.90;;;;;;10434750;28;20193;-77
2023/03/26 02:18:04;;;;;;;7.50;3.80;;;7.20;99.90;;;;;;10413151;28;20197;-77
2023/03/26 02:23:28;;;;;;;5.30;2.97;;;7.20;99.90;;;;;;10434744;28;20378;-76
2023/03/26 02:28:49;;;;;;;8.33;5.17;;;7.20;99.90;;;;;;10434666;28;20216;-77
2023/03/26 02:34:11;;;;;;;10.13;5.77;;;7.20;99.90;;;;;;10441318;28;20483;-76
2023/03/26 02:39:37;;;;;;;6.47;3.43;;;7.30;99.90;;;;;;10442781;28;20484;-77
2023/03/26 02:45:10;;;;;;;5.77;3.30;;;7.30;99.90;;;;;;10428222;28;20245;-76
2023/03/26 02:51:02;;;;;;;8.23;4.87;;;7.30;99.90;;;;;;10441758;28;20239;-77
2023/03/26 02:56:48;;;;;;;8.03;3.70;;;7.30;99.90;;;;;;10442235;28;20370;-78
2023/03/26 03:02:28;;;;;;;7.33;3.60;;;7.30;99.90;;;;;;10442591;28;20385;-77
2023/03/26 03:07:56;;;;;;;4.70;3.00;;;7.30;99.90;;;;;;10400489;28;20218;-76
2023/03/26 03:13:20;;;;;;;8.23;4.40;;;7.20;99.90;;;;;;10401875;28;20249;-76
2023/03/26 03:18:41;;;;;;;7.03;4.27;;;7.20;99.90;;;;;;10419536;28;20196;-77
2023/03/26 03:24:02;;;;;;;6.07;3.30;;;7.20;99.90;;;;;;10441051;28;20491;-78
2023/03/26 03:29:27;;;;;;;5.87;3.40;;;7.20;99.90;;;;;;10440748;28;20292;-77
2023/03/26 03:34:51;;;;;;;6.37;3.80;;;7.30;99.90;;;;;;10426292;28;20332;-77
2023/03/26 03:40:12;;;;;;;5.00;3.57;;;7.20;99.90;;;;;;10440395;28;20201;-76
2023/03/26 03:45:34;;;;;;;5.57;3.20;;;7.30;99.90;;;;;;10425460;28;20247;-76
2023/03/26 03:51:27;;;;;;;5.17;3.13;;;7.20;99.90;;;;;;10440672;28;20579;-76
2023/03/26 03:56:54;;;;;;;5.97;3.87;;;7.20;99.90;;;;;;10439854;28;20325;-77
2023/03/26 04:02:33;;;;;;;4.37;3.10;;;7.20;99.90;;;;;;10425153;28;20197;-76
2023/03/26 04:07:58;;;;;;;4.37;2.80;;;7.20;99.90;;;;;;10398389;28;20202;-77
2023/03/26 04:13:20;;;;;;;9.43;2.70;;;7.30;99.90;;;;;;10399377;28;20232;-77
2023/03/26 04:18:47;;;;;;;5.13;3.23;;;7.30;99.90;;;;;;10416740;28;20201;-76
2023/03/26 04:24:09;;;;;;;4.07;2.73;;;7.30;99.90;;;;;;10424401;28;20252;-77
2023/03/26 04:30:05;;;;;;;3.27;2.00;;;7.20;99.90;;;;;;10439114;28;20219;-77
2023/03/26 04:35:29;;;;;;;2.10;1.80;;;7.10;99.90;;;;;;10438385;28;20267;-77
2023/03/26 04:40:50;;;;;;;2.20;1.80;;;7.10;99.90;;;;;;10437812;28;20531;-76
2023/03/26 04:46:33;;;;;;;4.37;2.20;;;7.00;99.90;;;;;;10412661;28;20563;-76
2023/03/26 04:52:10;;;;;;;13.03;4.70;;;6.90;99.90;;;;;;10423740;28;20327;-76
2023/03/26 04:57:47;;;;;;;10.60;4.17;;;6.90;99.90;;;;;;10425015;28;20213;-77
2023/03/26 05:03:30;;;;;;;3.90;1.67;;;6.90;99.90;;;;;;10437756;28;20194;-77
2023/03/26 05:08:57;;;;;;;1.60;1.10;;;6.90;99.90;;;;;;10422953;28;20296;-77
2023/03/26 05:14:37;;;;;;;1.43;1.33;;;6.80;99.90;;;;;;10437998;28;20218;-77
2023/03/26 05:20:15;;;;;;;1.33;1.10;;;6.80;99.90;;;;;;10424788;28;20499;-78
2023/03/26 05:25:36;;;;;;;2.00;1.03;;;6.90;99.90;;;;;;10422510;28;20193;-77
2023/03/26 05:31:07;;;;;;;1.63;1.07;;;6.90;99.90;;;;;;10436080;28;20231;-77
2023/03/26 05:36:32;;;;;;;1.47;1.10;;;7.00;99.90;;;;;;10436250;28;20193;-77
2023/03/26 05:42:13;;;;;;;2.20;1.77;;;7.00;99.90;;;;;;10423213;28;20287;-77
2023/03/26 05:48:07;;;;;;;3.07;2.20;;;7.10;99.90;;;;;;10435724;28;20195;-76
2023/03/26 05:53:31;;;;;;;3.23;2.20;;;7.10;99.90;;;;;;10436665;28;20194;-76
2023/03/26 05:59:11;;;;;;;2.87;1.47;;;7.10;99.90;;;;;;10435977;28;20441;-77
2023/03/26 06:04:51;;;;;;;3.27;2.13;;;7.10;99.90;;;;;;10435807;28;20214;-76
2023/03/26 06:10:31;;;;;;;5.60;2.90;;;7.10;99.90;;;;;;10435830;28;20225;-76
2023/03/26 06:15:52;;;;;;;13.33;6.37;;;7.10;99.90;;;;;;10430898;28;20197;-78
2023/03/26 06:21:26;;;;;;;4.73;2.20;;;7.10;99.90;;;;;;10400802;28;20202;-77
2023/03/26 06:26:52;;;;;;;1.73;1.30;;;7.10;99.90;;;;;;10428011;28;20193;-77
2023/03/26 06:32:23;;;;;;;1.70;1.10;;;7.20;99.90;;;;;;10435630;28;20535;-76
2023/03/26 06:37:55;;;;;;;1.80;1.10;;;7.20;99.90;;;;;;10434569;28;20218;-77
2023/03/26 06:43:17;;;;;;;1.10;1.00;;;7.30;99.90;;;;;;10420087;28;20445;-76
2023/03/26 06:49:06;;;;;;;1.10;1.00;;;7.30;99.90;;;;;;10434425;28;20220;-76
2023/03/26 06:55:07;;;;;;;1.40;0.73;;;7.60;99.90;;;;;;10434301;28;20476;-76
2023/03/26 07:01:00;;;;;;;0.77;0.70;;;7.70;99.90;;;;;;10390613;28;20216;-76
2023/03/26 07:06:40;;;;;;;0.90;0.80;;;7.60;99.90;;;;;;10424140;28;20204;-77
2023/03/26 07:12:41;;;;;;;1.23;0.60;;;7.90;99.90;;;;;;10333006;28;20238;-77
2023/03/26 07:18:21;;;;;;;0.90;0.80;;;8.00;99.90;;;;;;10308456;28;20287;-77
2023/03/26 07:23:45;;;;;;;1.93;0.67;;;7.80;99.90;;;;;;10316312;28;20520;-77
2023/03/26 07:29:31;;;;;;;2.77;1.03;;;7.90;99.90;;;;;;10300065;28;20243;-77
2023/03/26 07:35:22;;;;;;;1.27;0.90;;;7.90;99.90;;;;;;10302440;28;20211;-77
2023/03/26 07:41:21;;;;;;;1.10;0.80;;;8.10;99.90;;;;;;10344096;28;20528;-77
2023/03/26 07:47:03;;;;;;;0.60;0.60;;;8.10;99.90;;;;;;10400402;28;20249;-76
2023/03/26 07:52:33;;;;;;;0.70;0.70;;;8.10;99.90;;;;;;10399792;28;20218;-77
2023/03/26 07:58:22;;;;;;;1.37;0.93;;;8.00;99.90;;;;;;10398510;28;20500;-77
2023/03/26 08:04:26;;;;;;;1.03;0.60;;;8.00;99.90;;;;;;10410724;28;20494;-76
2023/03/26 08:10:15;;;;;;;0.80;0.80;;;8.30;99.90;;;;;;10424814;28;20591;-77
2023/03/26 08:15:57;;;;;;;2.43;1.57;;;8.40;99.90;;;;;;10435462;28;20207;-77
2023/03/26 08:21:30;;;;;;;0.67;0.67;;;8.40;99.90;;;;;;10403471;28;20501;-76
2023/03/26 08:27:05;;;;;;;0.90;0.70;;;8.40;99.90;;;;;;10432304;28;20271;-77
2023/03/26 08:32:26;;;;;;;0.77;0.70;;;8.50;99.90;;;;;;10438901;28;20221;-78
2023/03/26 08:37:48;;;;;;;1.43;0.70;;;8.80;99.90;;;;;;10438322;28;20193;-77
2023/03/26 08:43:25;;;;;;;1.60;1.03;;;8.70;99.90;;;;;;10438808;28;20237;-77
2023/03/26 08:49:00;;;;;;;2.30;0.93;;;8.80;99.90;;;;;;10442965;28;20398;-77
2023/03/26 08:54:25;;;;;;;1.50;1.40;;;9.00;99.90;;;;;;10446985;28;20222;-77
2023/03/26 09:00:04;;;;;;;1.93;1.00;;;9.00;99.90;;;;;;10437549;28;20209;-77
2023/03/26 09:05:35;;;;;;;1.47;1.10;;;8.90;99.90;;;;;;10437960;28;20205;-76
2023/03/26 09:11:17;;;;;;;1.53;1.10;;;8.90;99.90;;;;;;10438859;28;20233;-77
2023/03/26 09:17:01;;;;;;;2.63;1.30;;;8.80;99.90;;;;;;10435208;28;20205;-77
2023/03/26 09:22:34;;;;;;;3.33;1.80;;;9.00;99.90;;;;;;10435998;28;20241;-77
2023/03/26 09:28:30;;;;;;;6.30;1.70;;;9.20;99.90;;;;;;10410604;28;20591;-77
2023/03/26 09:33:58;;;;;;;3.80;2.33;;;9.20;99.90;;;;;;10396723;28;20206;-77
2023/03/26 09:39:41;;;;;;;7.03;3.20;;;9.10;99.90;;;;;;10382213;28;20194;-77
2023/03/26 09:45:39;;;;;;;7.47;3.40;;;9.10;99.90;;;;;;10395639;28;20419;-77
2023/03/26 09:51:18;;;;;;;6.30;2.23;;;8.80;99.90;;;;;;10402873;28;20233;-77
2023/03/26 09:56:57;;;;;;;12.60;3.80;;;8.70;99.90;;;;;;10412825;28;20265;-77
2023/03/26 10:02:52;;;;;;;6.30;1.73;;;9.30;99.90;;;;;;10412875;28;20242;-76
2023/03/26 10:08:28;;;;;;;5.93;1.80;;;11.10;99.90;;;;;;10412587;28;20181;-76
2023/03/26 10:14:02;;;;;;;5.43;1.87;;;12.20;99.90;;;;;;10421841;28;20220;-77
2023/03/26 10:19:42;;;;;;;6.63;2.00;;;11.50;99.90;;;;;;10453853;28;20208;-76
2023/03/26 10:25:21;;;;;;;4.87;2.07;;;10.90;99.90;;;;;;10458092;28;20214;-76
2023/03/26 10:30:48;;;;;;;6.97;2.20;;;9.90;99.90;;;;;;10454175;28;20229;-77
2023/03/26 10:36:30;;;;;;;5.53;1.70;;;10.90;99.90;;;;;;10438251;28;20209;-77
2023/03/26 10:41:59;;;;;;;7.30;2.13;;;11.10;99.90;;;;;;10453367;28;20231;-76
2023/03/26 10:47:38;;;;;;;3.67;1.30;;;10.70;99.90;;;;;;10455386;28;20189;-77
2023/03/26 10:53:29;;;;;;;3.50;1.20;;;10.70;99.90;;;;;;10456446;28;20226;-77
2023/03/26 10:58:50;;;;;;;3.63;0.93;;;11.10;99.90;;;;;;10462771;28;20199;-77
2023/03/26 11:04:38;;;;;;;3.43;1.10;;;11.10;99.90;;;;;;10461233;28;20559;-76
2023/03/26 11:10:20;;;;;;;2.50;0.97;;;11.10;99.90;;;;;;10462035;28;20240;-77
2023/03/26 11:15:57;;;;;;;1.80;0.80;;;10.60;99.90;;;;;;10458385;28;20239;-78
2023/03/26 11:21:32;;;;;;;1.43;0.77;;;9.90;99.90;;;;;;10406642;28;20207;-76
2023/03/26 11:27:14;;;;;;;2.47;0.90;;;9.90;99.90;;;;;;10435943;28;20205;-77
2023/03/26 11:32:43;;;;;;;1.97;0.80;;;9.80;99.90;;;;;;10426684;28;20468;-77
2023/03/26 11:38:31;;;;;;;2.93;0.83;;;10.30;99.90;;;;;;10427124;28;20225;-77
2023/03/26 11:44:20;;;;;;;3.80;1.30;;;10.70;99.90;;;;;;10440516;28;20591;-76
2023/03/26 11:49:44;;;;;;;2.40;1.30;;;10.70;99.90;;;;;;10440779;28;20223;-76
2023/03/26 11:55:05;;;;;;;2.30;1.10;;;10.30;99.90;;;;;;10441205;28;20263;-76
2023/03/26 12:00:28;;;;;;;4.77;1.33;;;9.90;99.90;;;;;;10440921;28;20199;-77
2023/03/26 12:05:57;;;;;;;4.23;1.47;;;9.80;99.90;;;;;;10438856;28;20280;-76
2023/03/26 12:11:23;;;;;;;3.43;1.40;;;9.80;99.90;;;;;;10439916;28;20460;-76
2023/03/26 12:17:43;;;;;;;79.77;40.00;;;9.70;99.90;;;;;;10413847;28;20229;-76
2023/03/26 12:23:05;;;;;;;6.53;2.37;;;9.10;99.90;;;;;;10518893;28;20529;-77
2023/03/26 12:28:31;;;;;;;2.13;1.10;;;9.30;99.90;;;;;;10518369;28;20266;-77
2023/03/26 12:34:15;;;;;;;5.93;1.63;;;9.80;99.90;;;;;;10527000;28;20232;-77
2023/03/26 12:39:42;;;;;;;2.10;0.97;;;10.30;99.90;;;;;;10518547;28;20607;-76
2023/03/26 12:45:05;;;;;;;3.33;1.23;;;10.30;99.90;;;;;;10503527;28;20232;-76
2023/03/26 12:51:00;;;;;;;2.37;1.00;;;10.70;99.90;;;;;;10500903;28;20548;-77
2023/03/26 12:56:37;;;;;;;6.27;2.03;;;11.00;99.90;;;;;;10482084;28;20369;-76
2023/03/26 13:02:19;;;;;;;2.00;1.10;;;10.40;99.90;;;;;;10422829;28;20305;-77
2023/03/26 13:08:25;;;;;;;3.83;1.43;;;9.90;99.90;;;;;;10397155;28;20502;-77
2023/03/26 13:14:16;;;;;;;2.23;1.13;;;9.50;99.90;;;;;;10400605;28;20230;-77
2023/03/26 13:19:44;;;;;;;3.77;1.40;;;9.60;99.90;;;;;;10419552;28;20222;-76
2023/03/26 13:25:37;;;;;;;5.30;0.90;;;10.40;99.90;;;;;;10437136;28;20204;-76
2023/03/26 13:31:07;;;;;;;3.50;1.27;;;10.90;99.90;;;;;;10436955;28;20440;-77
2023/03/26 13:37:06;;;;;;;3.33;1.23;;;11.10;97.40;;;;;;10437016;28;20206;-77
2023/03/26 13:42:48;;;;;;;3.27;1.20;;;11.00;94.30;;;;;;10435619;28;20461;-77
2023/03/26 13:48:18;;;;;;;2.80;1.40;;;11.00;95.30;;;;;;10435447;28;20219;-77
2023/03/26 13:53:49;;;;;;;4.47;1.40;;;11.00;94.60;;;;;;10435653;28;20362;-78
2023/03/26 13:59:20;;;;;;;3.27;1.20;;;10.70;92.60;;;;;;10435962;28;20197;-77
2023/03/26 14:04:55;;;;;;;3.53;0.90;;;10.30;96.90;;;;;;10435736;28;20204;-77
2023/03/26 14:10:29;;;;;;;4.00;1.87;;;10.00;98.10;;;;;;10435607;28;20219;-77
2023/03/26 14:15:57;;;;;;;3.90;1.70;;;9.80;99.00;;;;;;10416949;28;20279;-77
2023/03/26 14:21:48;;;;;;;4.17;1.27;;;9.70;99.60;;;;;;10399715;28;20270;-77
2023/03/26 14:27:50;;;;;;;4.70;1.40;;;9.40;99.90;;;;;;10417787;28;20379;-77
2023/03/26 14:33:32;;;;;;;3.87;1.40;;;9.10;99.90;;;;;;10467433;28;20307;-77
2023/03/26 14:39:30;;;;;;;4.00;1.20;;;8.90;99.90;;;;;;10481219;28;20251;-78
2023/03/26 14:45:25;;;;;;;2.70;0.83;;;8.90;99.90;;;;;;10481070;28;20245;-77
2023/03/26 14:50:53;;;;;;;1.77;0.60;;;9.10;99.90;;;;;;10464213;28;20539;-76
2023/03/26 14:56:36;;;;;;;2.73;0.90;;;9.20;99.90;;;;;;10480623;28;20201;-76
2023/03/26 15:02:21;;;;;;;2.13;1.47;;;9.20;99.90;;;;;;10480637;28;20506;-76
2023/03/26 15:08:05;;;;;;;4.43;1.50;;;9.00;99.90;;;;;;10407291;28;20233;-77
2023/03/26 15:13:44;;;;;;;5.63;1.20;;;8.80;99.90;;;;;;10403835;28;20450;-78
2023/03/26 15:19:43;;;;;;;5.63;1.90;;;8.50;99.90;;;;;;10424216;28;20201;-77
2023/03/26 15:25:07;;;;;;;4.53;1.57;;;8.10;99.90;;;;;;10441880;28;20513;-78
2023/03/26 15:30:34;;;;;;;8.17;1.90;;;8.00;99.90;;;;;;10441835;28;20222;-78
2023/03/26 15:36:40;;;;;;;5.23;2.53;;;7.90;99.90;;;;;;10441623;28;20269;-78
2023/03/26 15:42:20;;;;;;;3.67;1.40;;;7.90;99.90;;;;;;10460661;28;20260;-78
2023/03/26 15:48:03;;;;;;;14.33;2.70;;;7.80;99.90;;;;;;10462086;28;20204;-77
2023/03/26 15:53:47;;;;;;;12.73;3.70;;;7.70;99.90;;;;;;10447547;28;20242;-77
2023/03/26 15:59:25;;;;;;;10.00;2.50;;;7.60;99.90;;;;;;10478061;28;20207;-78
2023/03/26 16:05:20;;;;;;;13.80;3.57;;;7.60;99.90;;;;;;10477762;28;20242;-77
2023/03/26 16:10:52;;;;;;;7.20;2.03;;;7.40;99.90;;;;;;10461089;28;20684;-78
2023/03/26 16:16:13;;;;;;;9.33;2.90;;;7.20;99.90;;;;;;10456847;28;20268;-78
2023/03/26 16:21:42;;;;;;;7.83;2.67;;;7.10;99.90;;;;;;10391815;28;20203;-77
2023/03/26 16:27:11;;;;;;;8.03;2.70;;;6.90;99.90;;;;;;10433271;28;20188;-78
2023/03/26 16:32:35;;;;;;;16.13;4.03;;;6.90;99.90;;;;;;10439349;28;20217;-77
2023/03/26 16:38:17;;;;;;;13.40;3.87;;;6.90;99.90;;;;;;10439089;28;20381;-77
2023/03/26 16:43:50;;;;;;;15.67;3.50;;;6.80;99.90;;;;;;10438993;28;20234;-78
2023/03/26 16:49:36;;;;;;;8.33;3.10;;;6.70;99.90;;;;;;10438543;28;20479;-77
2023/03/26 16:55:19;;;;;;;10.73;3.00;;;6.60;99.90;;;;;;10438323;28;20202;-78
2023/03/26 17:00:59;;;;;;;16.47;5.20;;;6.50;99.90;;;;;;10437200;28;20258;-77
2023/03/26 17:06:24;;;;;;;13.70;4.50;;;6.40;99.90;;;;;;10437770;28;20505;-78
2023/03/26 17:12:04;;;;;;;11.97;2.77;;;6.30;99.90;;;;;;10437711;28;20231;-77
2023/03/26 17:17:44;;;;;;;15.80;3.50;;;6.10;99.90;;;;;;10420833;28;20204;-77
2023/03/26 17:23:13;;;;;;;14.13;3.97;;;6.00;99.90;;;;;;10399359;28;20506;-77
2023/03/26 17:29:05;;;;;;;17.47;5.40;;;5.90;99.90;;;;;;10437202;28;20575;-77
2023/03/26 17:34:37;;;;;;;12.83;3.87;;;5.80;99.90;;;;;;10435507;28;20323;-77
2023/03/26 17:40:05;;;;;;;17.50;4.83;;;5.70;99.90;;;;;;10408173;28;20203;-77
2023/03/26 17:45:29;;;;;;;13.20;4.00;;;5.60;99.90;;;;;;10435686;28;20525;-78
2023/03/26 17:50:54;;;;;;;17.33;5.50;;;5.60;99.90;;;;;;10436134;28;20285;-77
2023/03/26 17:56:20;;;;;;;14.27;4.17;;;5.50;99.90;;;;;;10435229;28;20254;-77
2023/03/26 18:01:44;;;;;;;13.10;5.07;;;5.50;99.90;;;;;;10435458;28;20192;-77
2023/03/26 18:07:27;;;;;;;7.93;4.10;;;5.40;99.90;;;;;;10436099;28;20214;-77
2023/03/26 18:13:07;;;;;;;13.30;4.03;;;5.40;99.90;;;;;;10407156;28;20238;-77
2023/03/26 18:18:30;;;;;;;11.33;2.87;;;5.30;99.90;;;;;;10413792;28;20196;-78
2023/03/26 18:23:52;;;;;;;9.30;2.60;;;5.20;99.90;;;;;;10435581;28;20194;-78
2023/03/26 18:29:29;;;;;;;10.37;2.90;;;5.10;99.90;;;;;;10420570;28;20202;-77
2023/03/26 18:34:58;;;;;;;12.00;4.37;;;5.10;99.90;;;;;;10434411;28;20303;-77
2023/03/26 18:40:22;;;;;;;17.27;5.30;;;5.10;99.90;;;;;;10434512;28;20270;-77
2023/03/26 18:45:46;;;;;;;14.10;4.80;;;5.10;99.90;;;;;;10435151;28;20192;-78
2023/03/26 18:51:07;;;;;;;9.57;3.43;;;5.00;99.90;;;;;;10435189;28;20231;-77
2023/03/26 18:56:34;;;;;;;13.57;4.60;;;5.00;99.90;;;;;;10435147;28;20213;-77
2023/03/26 19:01:56;;;;;;;10.80;3.23;;;5.00;99.90;;;;;;10433943;28;20223;-77
2023/03/26 19:07:24;;;;;;;12.47;3.93;;;4.90;99.90;;;;;;10434883;28;20382;-77
2023/03/26 19:12:57;;;;;;;12.70;4.00;;;4.90;99.90;;;;;;10434262;28;20399;-77
2023/03/26 19:18:23;;;;;;;14.37;4.87;;;4.80;99.90;;;;;;10403660;28;20200;-77
2023/03/26 19:23:46;;;;;;;11.20;4.07;;;4.80;99.90;;;;;;10440908;28;20267;-77
2023/03/26 19:29:13;;;;;;;10.80;3.40;;;4.80;99.90;;;;;;10440736;28;20204;-78
2023/03/26 19:34:37;;;;;;;7.67;2.57;;;4.70;99.90;;;;;;10426591;28;20591;-76
2023/03/26 19:40:28;;;;;;;10.37;2.77;;;4.70;99.90;;;;;;10441775;28;20196;-77
2023/03/26 19:45:51;;;;;;;10.87;2.70;;;4.70;99.90;;;;;;10441018;28;20247;-77
2023/03/26 19:51:33;;;;;;;7.70;2.60;;;4.80;99.90;;;;;;10440851;28;20226;-77
2023/03/26 19:56:54;;;;;;;8.60;2.40;;;4.90;99.90;;;;;;10441045;28;20195;-78
2023/03/26 20:02:16;;;;;;;11.50;2.37;;;4.80;99.90;;;;;;10439325;28;20210;-77
2023/03/26 20:07:38;;;;;;;8.30;2.93;;;4.80;99.90;;;;;;10399454;28;20222;-77
2023/03/26 20:13:00;;;;;;;7.90;2.87;;;4.70;99.90;;;;;;10398108;28;20256;-77
2023/03/26 20:18:21;;;;;;;12.10;3.77;;;4.50;99.90;;;;;;10419979;28;20249;-77
2023/03/26 20:23:42;;;;;;;8.87;4.70;;;4.50;99.90;;;;;;10438677;28;20222;-76
2023/03/26 20:29:03;;;;;;;13.80;4.80;;;4.50;99.90;;;;;;10437656;28;20201;-78
2023/03/26 20:34:26;;;;;;;10.37;4.07;;;4.40;99.90;;;;;;10439399;28;20227;-78
2023/03/26 20:39:47;;;;;;;14.60;4.57;;;4.40;99.90;;;;;;10424184;28;20203;-78
2023/03/26 20:45:21;;;;;;;12.00;3.93;;;4.30;99.90;;;;;;10437690;28;20222;-77
2023/03/26 20:50:43;;;;;;;9.93;3.87;;;4.30;99.90;;;;;;10437693;28;20274;-74
2023/03/26 20:56:18;;;;;;;9.37;4.37;;;4.30;99.90;;;;;;10437597;28;20198;-76
2023/03/26 21:01:39;;;;;;;7.93;3.40;;;4.30;99.90;;;;;;10438396;28;20546;-75
2023/03/26 21:07:00;;;;;;;9.30;3.00;;;4.20;99.90;;;;;;10438152;28;20210;-76
2023/03/26 21:12:32;;;;;;;8.83;2.53;;;4.30;99.90;;;;;;10436447;28;20436;-76
2023/03/26 21:17:54;;;;;;;10.47;2.60;;;4.40;99.90;;;;;;10404254;28;20211;-75
2023/03/26 21:23:29;;;;;;;9.07;2.57;;;4.50;99.90;;;;;;10408614;28;20387;-75
2023/03/26 21:28:50;;;;;;;7.60;2.50;;;4.60;99.90;;;;;;10436222;28;20246;-76
2023/03/26 21:34:12;;;;;;;9.23;3.47;;;4.70;99.90;;;;;;10437081;28;20288;-78
2023/03/26 21:39:34;;;;;;;13.03;4.67;;;4.70;99.90;;;;;;10435832;28;20188;-75
2023/03/26 21:44:55;;;;;;;8.63;3.13;;;4.70;99.90;;;;;;10436445;28;20232;-78
2023/03/26 21:50:19;;;;;;;8.57;2.23;;;4.80;99.90;;;;;;10436839;28;20223;-76
2023/03/26 21:56:01;;;;;;;6.03;2.00;;;4.80;99.90;;;;;;10435193;28;20431;-75
2023/03/26 22:01:25;;;;;;;6.00;2.40;;;4.70;99.90;;;;;;10436284;28;20262;-75
2023/03/26 22:07:03;;;;;;;1.97;1.10;;;4.80;99.90;;;;;;10435116;28;20250;-77
2023/03/26 22:12:24;;;;;;;4.43;1.30;;;4.80;99.90;;;;;;10435774;28;20530;-76
2023/03/26 22:17:52;;;;;;;3.27;1.60;;;4.80;99.90;;;;;;10408757;28;20200;-76
2023/03/26 22:23:13;;;;;;;2.40;1.50;;;4.80;99.90;;;;;;10434465;28;20195;-78
2023/03/26 22:28:35;;;;;;;4.83;1.57;;;4.70;99.90;;;;;;10435663;28;20221;-77
2023/03/26 22:33:56;;;;;;;2.50;1.47;;;4.50;99.90;;;;;;10435520;28;20294;-78
2023/03/26 22:39:17;;;;;;;5.10;1.87;;;4.30;99.90;;;;;;10435127;28;20497;-77
2023/03/26 22:44:38;;;;;;;4.63;1.73;;;4.20;99.90;;;;;;10435175;28;20306;-78
2023/03/26 22:49:59;;;;;;;1.90;1.20;;;4.20;99.90;;;;;;10439194;28;20309;-77
2023/03/26 22:55:21;;;;;;;3.43;1.53;;;4.20;99.90;;;;;;10443054;28;20222;-78
2023/03/26 23:00:44;;;;;;;3.60;1.60;;;4.30;99.90;;;;;;10442875;28;20199;-77
2023/03/26 23:06:07;;;;;;;1.57;0.97;;;4.30;99.90;;;;;;10442591;28;20388;-77
2023/03/26 23:11:29;;;;;;;4.90;1.10;;;4.40;99.90;;;;;;10441723;28;20222;-77
2023/03/26 23:16:50;;;;;;;4.67;1.00;;;4.40;99.90;;;;;;10430207;28;20204;-77
2023/03/26 23:22:12;;;;;;;2.63;1.13;;;4.30;99.90;;;;;;10438722;28;20292;-76
2023/03/26 23:27:34;;;;;;;1.70;1.00;;;4.20;99.90;;;;;;10442217;28;20196;-76
2023/03/26 23:32:56;;;;;;;1.97;1.07;;;4.10;99.90;;;;;;10440855;28;20229;-77
2023/03/26 23:38:18;;;;;;;3.40;1.13;;;4.00;99.90;;;;;;10441347;28;20473;-76
2023/03/26 23:43:40;;;;;;;2.67;0.80;;;4.00;99.90;;;;;;10439904;28;20242;-76
2023/03/26 23:49:02;;;;;;;2.57;0.80;;;4.00;99.90;;;;;;10441348;28;20279;-77
2023/03/26 23:54:24;;;;;;;1.20;1.00;;;4.10;99.90;;;;;;10440749;28;20260;-76
2023/03/26 23:59:45;;;;;;;6.83;0.97;;;4.20;99.90;;;;;;10439794;28;20190;-77
